Terminal Aerodrome Forecast
Issued by NWS Bismarck, ND

Home | Current Version | Previous Version | Graphics & Text | Print | Product List | Glossary On
Versions: 1 2 3 4 5 6 7 8 9 10 11 12 13 14 15 16 17 18 19 20
000
FTUS43 KBIS 130914 AAA
TAFISN
TAF AMD
KISN 130914Z 1309/1406 30018KT P6SM SKC
     FM131600 31017G26KT P6SM BKN020
     FM131900 32015G25KT P6SM BKN035
     FM132200 32012KT P6SM BKN045=

USA.gov is the U.S. government's official web portal to all federal, state and local government web resources and services.